Wednesday, January 17, 2018, 6:32 AM EST
Back to Local

KVAY, Mt Holly South Jersey Rgnl

Location: Medford, NJ, United States Lat: 39.933
Local Time: 6:32 AM EST (11:32 GMT) Lon: -74.833
Time Zone: US/Eastern Elev: 52 ft

Show me the last for .
Show Decoded

2018-01-17 06:01 METAR KVAY 171101Z AUTO VRB04KT 1 1/2SM -SN BR BKN004 OVC021 01/01 A3028 RMK AO2
                 P0000 T00060006 =
2018-01-17 05:54 METAR KVAY 171054Z AUTO 31004KT 1 3/4SM -SN BR BKN005 OVC019 01/01 A3028 RMK AO2
                 RAE13UPB23E26SNB13E23B26 SLP254 P0002 T00060006 =
2018-01-17 05:48 METAR KVAY 171048Z AUTO 31004KT 1 3/4SM -SN BR BKN005 OVC019 01/01 A3028 RMK AO2
                 RAE13UPB23E26SNB13E23B26 P0002 =
2018-01-17 05:39 METAR KVAY 171039Z AUTO 33004KT 2 1/2SM -SN BR BKN005 OVC019 01/01 A3027 RMK AO2
                 RAE13UPB23E26SNB13E23B26 P0001 T00060006 =
2018-01-17 04:54 METAR KVAY 170954Z AUTO 32005KT 3SM -RA BR BKN005 OVC014 01/01 A3027 RMK AO2
                 SLP250 P0005 T00110011 =
2018-01-17 04:39 METAR KVAY 170939Z AUTO VRB03KT 3SM -RA BR BKN005 BKN010 OVC014 01/01 A3026 RMK
                 AO2 P0004 T00110011 =
2018-01-17 04:29 METAR KVAY 170929Z AUTO 33004KT 3SM -RA BR SCT004 OVC012 01/01 A3026 RMK AO2
                 P0003 T00110011 =
2018-01-17 04:11 METAR KVAY 170911Z AUTO 32004KT 2 1/2SM -RA BR OVC004 01/01 A3027 RMK AO2 P0002
                 T00110011 =
2018-01-17 03:54 METAR KVAY 170854Z AUTO 34003KT 3SM -RA BR OVC006 01/01 A3027 RMK AO2 UPB40E42
                 CIG 004V009 SLP249 P0004 60007 T00110011 58009 =
2018-01-17 02:54 METAR KVAY 170754Z AUTO 31005KT 4SM -RA BR OVC006 02/01 A3028 RMK AO2 RAB26
                 SLP253 P0003 T00170011 =
2018-01-17 01:54 METAR KVAY 170654Z AUTO 33004KT 10SM OVC006 02/01 A3028 RMK AO2 SLP256 T00220006
                 =
2018-01-17 00:54 METAR KVAY 170554Z AUTO 00000KT 10SM OVC005 01/00 A3029 RMK AO2 SLP259 T00110000
                 10011 20000 58017 =
2018-01-17 00:39 METAR KVAY 170539Z AUTO 00000KT 10SM OVC005 01/00 A3030 RMK AO2 T00110000 =
2018-01-16 23:54 METAR KVAY 170454Z AUTO 00000KT 10SM BKN009 BKN037 BKN045 01/M01 A3031 RMK AO2
                 SLP265 T00061006 400781044 =
2018-01-16 23:47 METAR KVAY 170447Z AUTO 00000KT 10SM SCT008 SCT033 BKN045 01/M01 A3032 RMK AO2
                 T00061006 =
2018-01-16 22:54 METAR KVAY 170354Z AUTO 00000KT 10SM SCT044 00/M01 A3033 RMK AO2 SLP270
                 T00001011 =
2018-01-16 21:54 METAR KVAY 170254Z AUTO 00000KT 10SM BKN033 OVC042 01/M01 A3034 RMK AO2 SLP276
                 T00111006 56015 =
2018-01-16 20:54 METAR KVAY 170154Z AUTO 00000KT 10SM FEW026 BKN040 01/M01 A3036 RMK AO2 SLP281
                 T00111011 =
2018-01-16 19:54 METAR KVAY 170054Z AUTO 00000KT 10SM OVC037 01/M01 A3037 RMK AO2 SLP284
                 T00061011 =
2018-01-16 18:54 METAR KVAY 162354Z AUTO 00000KT 10SM BKN036 01/M01 A3039 RMK AO2 SLP291
                 T00111011 10078 20006 53005 =
2018-01-16 17:54 METAR KVAY 162254Z AUTO 00000KT 10SM CLR 03/M01 A3038 RMK AO2 SLP288 T00331006 =
2018-01-16 16:54 METAR KVAY 162154Z AUTO 12003KT 10SM CLR 05/M01 A3037 RMK AO2 SLP285 T00501006 =
2018-01-16 15:54 METAR KVAY 162054Z AUTO 14005KT 10SM OVC038 06/M01 A3037 RMK AO2 SLP285
                 T00611006 56014 =
2018-01-16 14:54 METAR KVAY 161954Z AUTO 16005KT 10SM BKN039 07/M01 A3038 RMK AO2 SLP289
                 T00671011 =
2018-01-16 13:54 METAR KVAY 161854Z AUTO 00000KT 10SM SCT038 07/M02 A3040 RMK AO2 SLP294
                 T00671017 =
2018-01-16 12:54 METAR KVAY 161754Z AUTO 00000KT 10SM FEW034 06/M01 A3041 RMK AO2 SLP299
                 T00611011 10061 21022 58028 =
2018-01-16 11:54 METAR KVAY 161654Z AUTO 11004KT 10SM CLR 04/M01 A3044 RMK AO2 SLP310 T00441011 =
2018-01-16 10:54 METAR KVAY 161554Z AUTO 00000KT 10SM BKN060 02/M02 A3049 RMK AO2 SLP324
                 T00221022 =
2018-01-16 09:54 METAR KVAY 161454Z AUTO 09003KT 10SM SCT032 BKN060 00/M03 A3050 RMK AO2 SLP328
                 T00001033 50002 =
2018-01-16 08:54 METAR KVAY 161354Z AUTO 00000KT 10SM OVC031 M01/M04 A3050 RMK AO2 SLP329
                 T10111039 =
2018-01-16 07:54 METAR KVAY 161254Z AUTO 01003KT 10SM OVC031 M02/M04 A3051 RMK AO2 SLP331
                 T10221044 =
2018-01-16 06:54 METAR KVAY 161154Z AUTO 00000KT 10SM OVC031 M02/M04 A3049 RMK AO2 SLP326
                 T10221044 11022 21033 53004 =

Support USWX by starting your Amazon purchase here.